createdAt,value
2018-08-30T00:00:08.955Z,43.90
2018-08-30T00:02:37.592Z,45.47
2018-08-30T00:05:06.258Z,44.40
2018-08-30T00:07:35.013Z,41.30
2018-08-30T00:10:03.659Z,43.13
2018-08-30T00:12:32.315Z,45.23
2018-08-30T00:15:00.959Z,43.20
2018-08-30T00:17:29.605Z,42.53
2018-08-30T00:19:58.289Z,46.23
2018-08-30T00:22:27.349Z,46.13
2018-08-30T00:24:56.220Z,45.03
2018-08-30T00:27:24.869Z,42.60
2018-08-30T00:29:53.633Z,36.90
2018-08-30T00:32:22.279Z,30.83
2018-08-30T00:34:50.938Z,27.77
2018-08-30T00:37:19.891Z,24.93
2018-08-30T00:39:48.642Z,23.53
2018-08-30T00:42:17.298Z,23.50
2018-08-30T00:44:46.005Z,19.97
2018-08-30T00:47:21.448Z,19.03
2018-08-30T00:49:51.073Z,19.17
2018-08-30T00:52:20.174Z,18.83
2018-08-30T00:54:48.826Z,20.07
2018-08-30T00:57:17.894Z,19.60
2018-08-30T00:59:46.894Z,17.57
2018-08-30T01:02:15.570Z,16.23
2018-08-30T01:04:44.249Z,14.40
2018-08-30T01:07:12.930Z,13.27
2018-08-30T01:09:41.598Z,12.63
2018-08-30T01:12:10.258Z,10.97
2018-08-30T01:14:38.894Z,11.87
2018-08-30T01:17:07.617Z,12.33
2018-08-30T01:19:36.249Z,11.23
2018-08-30T01:22:04.898Z,10.43
2018-08-30T01:24:33.537Z,13.47
2018-08-30T01:27:02.189Z,12.40
2018-08-30T01:29:30.837Z,12.67
2018-08-30T01:31:59.494Z,13.30
2018-08-30T01:34:28.145Z,13.67
2018-08-30T01:36:56.801Z,14.33
2018-08-30T01:39:25.454Z,16.70
2018-08-30T01:41:54.213Z,15.63
2018-08-30T01:44:22.861Z,17.23
2018-08-30T01:46:51.530Z,16.67
2018-08-30T01:49:20.197Z,17.30
2018-08-30T01:51:48.847Z,18.37
2018-08-30T01:54:17.490Z,20.67
2018-08-30T01:56:46.158Z,21.57
2018-08-30T01:59:14.797Z,21.07
2018-08-30T02:01:43.449Z,21.50
2018-08-30T02:04:12.090Z,22.23
2018-08-30T02:06:40.744Z,21.80
2018-08-30T02:09:09.393Z,23.83
2018-08-30T02:11:38.040Z,23.03
2018-08-30T02:14:06.689Z,24.60
2018-08-30T02:16:35.330Z,23.37
2018-08-30T02:19:03.989Z,26.53
2018-08-30T02:21:32.629Z,26.67
2018-08-30T02:24:01.269Z,28.70
2018-08-30T02:26:29.931Z,26.47
2018-08-30T02:28:58.570Z,26.17
2018-08-30T02:31:27.213Z,27.40
2018-08-30T02:33:55.881Z,30.50
2018-08-30T02:36:24.527Z,28.03
2018-08-30T02:38:53.177Z,28.53
2018-08-30T02:41:21.865Z,29.30
2018-08-30T02:43:50.546Z,29.40
2018-08-30T02:46:19.186Z,30.97
2018-08-30T02:48:47.849Z,31.57
2018-08-30T02:51:16.737Z,30.90
2018-08-30T02:53:45.400Z,31.30
2018-08-30T02:56:14.030Z,30.93
2018-08-30T02:58:42.698Z,30.50
2018-08-30T03:01:11.358Z,29.67
2018-08-30T03:03:40.010Z,31.30
2018-08-30T03:06:08.673Z,32.27
2018-08-30T03:08:37.346Z,31.83
2018-08-30T03:11:06.079Z,32.90
2018-08-30T03:13:34.722Z,31.97
2018-08-30T03:16:03.382Z,31.47
2018-08-30T03:18:32.009Z,31.43
2018-08-30T03:21:00.746Z,31.97
2018-08-30T03:23:29.398Z,32.97
2018-08-30T03:25:58.053Z,30.90
2018-08-30T03:28:26.692Z,33.30
2018-08-30T03:30:55.555Z,33.90
2018-08-30T03:33:24.078Z,32.73
2018-08-30T03:35:52.726Z,31.83
2018-08-30T03:38:21.403Z,35.13
2018-08-30T03:40:50.045Z,35.00
2018-08-30T03:43:18.709Z,34.27
2018-08-30T03:45:47.349Z,35.50
2018-08-30T03:48:16.026Z,33.20
2018-08-30T03:50:44.765Z,33.63
2018-08-30T03:53:13.406Z,33.10
2018-08-30T03:55:42.101Z,34.50
2018-08-30T03:58:10.737Z,35.67
2018-08-30T04:00:39.386Z,37.87
2018-08-30T04:03:08.030Z,36.20
2018-08-30T04:05:36.674Z,37.27
2018-08-30T04:08:05.642Z,35.17
2018-08-30T04:10:34.289Z,36.20
2018-08-30T04:13:02.926Z,37.40
2018-08-30T04:15:31.583Z,36.27
2018-08-30T04:18:00.245Z,36.87
2018-08-30T04:20:28.907Z,35.47
2018-08-30T04:22:57.550Z,37.37
2018-08-30T04:25:26.209Z,38.27
2018-08-30T04:27:54.869Z,35.00
2018-08-30T04:30:23.570Z,40.77
2018-08-30T04:32:52.229Z,38.70
2018-08-30T04:35:20.873Z,37.67
2018-08-30T04:37:49.517Z,36.40
2018-08-30T04:40:18.158Z,36.40
2018-08-30T04:42:46.858Z,39.03
2018-08-30T04:45:15.476Z,39.17
2018-08-30T04:47:44.133Z,38.90
2018-08-30T04:50:12.840Z,38.73
2018-08-30T04:52:41.438Z,41.77
2018-08-30T04:55:10.093Z,41.73
2018-08-30T04:57:38.933Z,40.57
2018-08-30T05:00:07.593Z,44.27
2018-08-30T05:02:36.237Z,43.00
2018-08-30T05:05:04.902Z,40.77
2018-08-30T05:07:33.563Z,39.60
2018-08-30T05:10:02.223Z,43.00
2018-08-30T05:12:30.848Z,43.20
2018-08-30T05:14:59.501Z,44.23
2018-08-30T05:17:28.158Z,40.30
2018-08-30T05:19:56.812Z,41.63
2018-08-30T05:22:25.477Z,41.80
2018-08-30T05:24:54.137Z,42.77
2018-08-30T05:27:22.774Z,42.00
2018-08-30T05:29:51.433Z,41.00
2018-08-30T05:32:20.074Z,40.87
2018-08-30T05:34:48.755Z,40.20
2018-08-30T05:37:17.386Z,40.00
2018-08-30T05:39:46.031Z,37.90
2018-08-30T05:42:14.769Z,38.77
2018-08-30T05:44:43.506Z,38.27
2018-08-30T05:47:12.062Z,40.03
2018-08-30T05:49:40.731Z,35.63
2018-08-30T05:52:09.362Z,38.40
2018-08-30T05:54:38.031Z,35.53
2018-08-30T05:57:06.700Z,37.20
2018-08-30T05:59:35.345Z,35.50
2018-08-30T06:02:03.987Z,35.63
2018-08-30T06:04:32.683Z,32.67
2018-08-30T06:07:01.362Z,35.43
2018-08-30T06:09:33.825Z,32.00
2018-08-30T06:12:02.565Z,38.57
2018-08-30T06:14:31.209Z,38.90
2018-08-30T06:16:59.874Z,34.73
2018-08-30T06:19:28.542Z,32.33
2018-08-30T06:21:57.201Z,28.60
2018-08-30T06:24:25.848Z,30.07
2018-08-30T06:26:54.590Z,30.10
2018-08-30T06:29:23.249Z,28.07
2018-08-30T06:31:51.826Z,29.23
2018-08-30T06:34:20.478Z,27.10
2018-08-30T06:36:49.353Z,25.00
2018-08-30T06:39:17.970Z,26.83
2018-08-30T06:41:46.619Z,26.53
2018-08-30T06:44:15.322Z,24.80
2018-08-30T06:46:44.011Z,24.20
2018-08-30T06:49:13.007Z,28.70
2018-08-30T06:51:42.138Z,23.67
2018-08-30T06:54:10.801Z,22.93
2018-08-30T06:56:39.649Z,25.30
2018-08-30T06:59:08.359Z,23.43
2018-08-30T07:01:37.354Z,24.07
2018-08-30T07:04:06.427Z,22.07
2018-08-30T07:06:35.069Z,21.80
2018-08-30T07:09:05.047Z,20.03
2018-08-30T07:11:33.685Z,20.83
2018-08-30T07:14:02.333Z,21.70
2018-08-30T07:16:30.977Z,18.97
2018-08-30T07:18:59.778Z,19.10
2018-08-30T07:21:28.526Z,15.97
2018-08-30T07:23:57.367Z,18.23
2018-08-30T07:26:26.030Z,18.13
2018-08-30T07:28:54.885Z,17.50
2018-08-30T07:31:23.537Z,16.67
2018-08-30T07:33:52.186Z,19.40
2018-08-30T07:36:20.843Z,18.90
2018-08-30T07:38:49.534Z,17.27
2018-08-30T07:41:18.181Z,15.97
2018-08-30T07:43:46.843Z,17.60
2018-08-30T07:46:15.507Z,15.43
2018-08-30T07:48:44.166Z,51.27
2018-08-30T07:51:13.085Z,19.70
2018-08-30T07:53:41.737Z,16.87
2018-08-30T07:56:10.533Z,20.33
2018-08-30T07:58:39.179Z,15.60
2018-08-30T08:01:07.834Z,18.63
2018-08-30T08:03:36.597Z,15.23
2018-08-30T08:06:05.323Z,14.60
2018-08-30T08:08:33.953Z,13.20
2018-08-30T08:11:02.594Z,12.87
2018-08-30T08:13:31.253Z,15.40
2018-08-30T08:15:59.897Z,17.63
2018-08-30T08:18:28.553Z,12.50
2018-08-30T08:20:57.202Z,11.27
2018-08-30T08:23:25.857Z,14.07
2018-08-30T08:25:54.531Z,13.30
2018-08-30T08:28:23.149Z,12.40
2018-08-30T08:30:52.166Z,11.43
2018-08-30T08:33:20.849Z,12.13
2018-08-30T08:35:49.497Z,13.60
2018-08-30T08:38:24.621Z,10.77
2018-08-30T08:40:53.345Z,12.47
2018-08-30T08:43:21.985Z,14.73
2018-08-30T08:45:50.687Z,9.97
2018-08-30T08:48:19.354Z,13.50
2018-08-30T08:50:48.322Z,16.90
2018-08-30T08:53:16.985Z,9.67
2018-08-30T08:55:45.659Z,11.73
2018-08-30T08:58:14.345Z,9.00
2018-08-30T09:00:43.053Z,9.83
2018-08-30T09:03:11.704Z,8.73
2018-08-30T09:05:40.377Z,8.10
2018-08-30T09:08:09.015Z,8.17
2018-08-30T09:10:37.663Z,7.10
2018-08-30T09:13:06.316Z,9.20
2018-08-30T09:15:34.977Z,12.10
2018-08-30T09:18:03.610Z,10.90
2018-08-30T09:20:32.270Z,8.83
2018-08-30T09:23:00.907Z,11.50
2018-08-30T09:25:29.556Z,8.93
2018-08-30T09:27:58.204Z,11.50
2018-08-30T09:30:26.941Z,9.07
2018-08-30T09:32:55.609Z,9.03
2018-08-30T09:35:24.261Z,11.67
2018-08-30T09:37:52.913Z,9.40
2018-08-30T09:40:21.565Z,10.80
2018-08-30T09:42:50.209Z,8.77
2018-08-30T09:45:18.853Z,11.30
2018-08-30T09:47:47.526Z,12.87
2018-08-30T09:50:16.185Z,10.47
2018-08-30T09:52:44.846Z,8.93
2018-08-30T09:55:13.500Z,10.00
2018-08-30T09:57:42.300Z,6.93
2018-08-30T10:00:13.537Z,7.30
2018-08-30T10:02:47.634Z,9.80
2018-08-30T10:05:16.340Z,9.30
2018-08-30T10:07:45.189Z,12.30
2018-08-30T10:10:13.878Z,8.60
2018-08-30T10:12:42.522Z,7.83
2018-08-30T10:15:11.369Z,7.87
2018-08-30T10:17:40.022Z,8.47
2018-08-30T10:20:08.657Z,9.00
2018-08-30T10:22:37.297Z,7.80
2018-08-30T10:25:06.062Z,9.43
2018-08-30T10:27:34.741Z,6.17
2018-08-30T10:30:03.481Z,8.33
2018-08-30T10:32:32.137Z,10.20
2018-08-30T10:35:00.763Z,9.07
2018-08-30T10:37:29.416Z,7.73
2018-08-30T10:39:58.053Z,7.90
2018-08-30T10:43:29.900Z,8.43
2018-08-30T10:45:58.536Z,6.13
2018-08-30T10:48:27.181Z,5.83
2018-08-30T10:50:55.829Z,6.80
2018-08-30T10:53:24.957Z,9.23
2018-08-30T10:55:53.858Z,6.00
2018-08-30T10:58:23.089Z,6.70
2018-08-30T11:00:51.741Z,8.53
2018-08-30T11:03:20.389Z,5.80
2018-08-30T11:05:49.062Z,6.80
2018-08-30T11:08:17.717Z,6.30
2018-08-30T11:10:46.354Z,7.33
2018-08-30T11:13:15.047Z,10.00
2018-08-30T11:15:43.641Z,6.97
2018-08-30T11:18:12.295Z,7.53
2018-08-30T11:20:40.934Z,7.20
2018-08-30T11:23:09.603Z,5.90
2018-08-30T11:25:38.282Z,4.57
2018-08-30T11:28:06.893Z,7.40
2018-08-30T11:30:35.542Z,6.37
2018-08-30T11:33:04.204Z,6.60
2018-08-30T11:35:32.854Z,7.23
2018-08-30T11:38:01.494Z,5.60
2018-08-30T11:40:30.153Z,7.67
2018-08-30T11:42:58.794Z,6.63
2018-08-30T11:45:27.460Z,5.37
2018-08-30T11:47:56.107Z,9.00
2018-08-30T11:50:24.766Z,8.53
2018-08-30T11:52:53.769Z,8.47
2018-08-30T11:55:22.430Z,6.50
2018-08-30T11:57:51.078Z,6.53
2018-08-30T12:00:19.721Z,6.83
2018-08-30T12:02:48.370Z,10.97
2018-08-30T12:05:17.026Z,7.87
2018-08-30T12:07:45.881Z,7.50
2018-08-30T12:10:14.798Z,6.43
2018-08-30T12:12:43.473Z,10.20
2018-08-30T12:15:12.123Z,10.83
2018-08-30T12:17:40.773Z,7.73
2018-08-30T12:20:09.418Z,9.67
2018-08-30T12:22:38.057Z,5.20
2018-08-30T12:25:06.709Z,11.43
2018-08-30T12:27:35.382Z,8.23
2018-08-30T12:30:04.327Z,9.37
2018-08-30T12:32:33.020Z,8.30
2018-08-30T12:35:01.725Z,6.00
2018-08-30T12:37:30.268Z,11.50
2018-08-30T12:39:59.049Z,11.77
2018-08-30T12:42:27.744Z,14.43
2018-08-30T12:44:56.351Z,5.43
2018-08-30T12:47:24.967Z,6.75
2018-08-30T12:49:53.641Z,5.75
2018-08-30T12:52:22.383Z,7.45
2018-08-30T12:54:50.998Z,7.80
2018-08-30T12:57:19.647Z,7.35
2018-08-30T12:59:48.388Z,7.08
2018-08-30T13:02:17.015Z,5.67
2018-08-30T13:04:45.838Z,12.18
2018-08-30T13:07:14.402Z,10.75
2018-08-30T13:09:43.091Z,6.15
2018-08-30T13:12:11.984Z,9.90
2018-08-30T13:14:40.449Z,8.85
2018-08-30T13:17:09.055Z,4.95
2018-08-30T13:19:37.941Z,4.78
2018-08-30T13:22:06.408Z,4.80
2018-08-30T13:24:35.094Z,6.45
2018-08-30T13:27:03.841Z,6.33
2018-08-30T13:29:32.406Z,6.30
2018-08-30T13:32:01.186Z,5.58
2018-08-30T13:34:29.777Z,4.47
2018-08-30T13:36:59.585Z,8.23
2018-08-30T13:39:28.224Z,5.30
2018-08-30T13:41:56.719Z,4.93
2018-08-30T13:44:25.407Z,11.37
2018-08-30T13:46:53.845Z,6.43
2018-08-30T13:49:22.583Z,4.20
2018-08-30T13:51:51.444Z,8.97
2018-08-30T13:54:19.988Z,5.90
2018-08-30T13:56:48.669Z,7.27
2018-08-30T13:59:17.473Z,15.67
2018-08-30T14:01:46.031Z,3.83
2018-08-30T14:04:14.378Z,4.80
2018-08-30T14:06:43.086Z,6.63
2018-08-30T14:09:11.787Z,8.70
2018-08-30T14:11:40.340Z,6.80
2018-08-30T14:14:09.036Z,4.33
2018-08-30T14:16:37.322Z,5.85
2018-08-30T14:19:06.164Z,6.45
2018-08-30T14:21:34.710Z,5.25
2018-08-30T14:24:03.386Z,6.35
2018-08-30T14:26:32.026Z,4.97
2018-08-30T14:29:00.743Z,5.70
2018-08-30T14:31:29.292Z,9.93
2018-08-30T14:33:57.933Z,6.80
2018-08-30T14:36:26.580Z,7.05
2018-08-30T14:38:55.423Z,6.37
2018-08-30T14:41:24.057Z,8.10
2018-08-30T14:43:52.642Z,8.90
2018-08-30T14:46:21.301Z,5.92
2018-08-30T14:48:50.009Z,5.67
2018-08-30T14:51:18.601Z,6.73
2018-08-30T14:53:52.178Z,4.83
2018-08-30T14:56:15.888Z,6.58
2018-08-30T14:58:44.517Z,8.03
2018-08-30T15:01:13.158Z,7.43
2018-08-30T15:03:41.842Z,8.57
2018-08-30T15:06:10.454Z,7.33
2018-08-30T15:08:39.126Z,7.30
2018-08-30T15:11:07.795Z,10.87
2018-08-30T15:13:36.450Z,9.27
2018-08-30T15:16:05.058Z,6.03
2018-08-30T15:18:33.720Z,12.90
2018-08-30T15:21:02.420Z,8.83
2018-08-30T15:23:31.061Z,6.00
2018-08-30T15:25:59.682Z,8.20
2018-08-30T15:28:28.354Z,5.50
2018-08-30T15:30:57.069Z,9.87
2018-08-30T15:33:25.734Z,7.93
2018-08-30T15:35:54.657Z,6.90
2018-08-30T15:38:23.317Z,9.43
2018-08-30T15:40:52.027Z,9.70
2018-08-30T15:43:20.706Z,5.63
2018-08-30T15:45:50.189Z,11.50
2018-08-30T15:48:18.932Z,5.90
2018-08-30T15:50:47.589Z,7.53
2018-08-30T15:53:16.403Z,11.17
2018-08-30T15:55:44.967Z,8.83
2018-08-30T15:58:13.661Z,8.07
2018-08-30T16:00:42.744Z,9.50
2018-08-30T16:03:11.414Z,6.63
2018-08-30T16:05:40.089Z,6.53
2018-08-30T16:08:08.689Z,7.70
2018-08-30T16:10:37.414Z,6.33
2018-08-30T16:13:06.133Z,6.23
2018-08-30T16:15:34.830Z,4.40
2018-08-30T16:18:03.502Z,6.00
2018-08-30T16:20:32.566Z,7.13
2018-08-30T16:23:39.408Z,7.40
2018-08-30T16:26:09.042Z,6.90
2018-08-30T16:28:37.749Z,9.97
2018-08-30T16:31:06.414Z,5.87
2018-08-30T16:33:35.040Z,12.20
2018-08-30T16:36:03.750Z,10.03
2018-08-30T16:38:32.370Z,9.87
2018-08-30T16:41:01.020Z,8.10
2018-08-30T16:43:29.766Z,7.13
2018-08-30T16:45:58.467Z,10.17
2018-08-30T16:48:27.589Z,10.83
2018-08-30T16:50:56.233Z,9.57
2018-08-30T16:53:24.918Z,10.53
2018-08-30T16:55:54.348Z,9.20
2018-08-30T16:58:23.366Z,6.13
2018-08-30T17:00:52.969Z,8.40
2018-08-30T17:03:21.642Z,7.83
2018-08-30T17:05:50.281Z,11.83
2018-08-30T17:08:20.156Z,5.77
2018-08-30T17:10:48.901Z,7.47
2018-08-30T17:13:17.549Z,5.80
2018-08-30T17:15:46.298Z,9.00
2018-08-30T17:18:14.952Z,5.40
2018-08-30T17:20:49.828Z,9.27
2018-08-30T17:23:18.536Z,8.20
2018-08-30T17:25:47.238Z,5.40
2018-08-30T17:28:15.937Z,9.00
2018-08-30T17:30:44.668Z,8.53
2018-08-30T17:33:13.349Z,7.33
2018-08-30T17:35:42.005Z,10.47
2018-08-30T17:38:10.699Z,6.17
2018-08-30T17:40:39.365Z,6.13
2018-08-30T17:43:08.024Z,8.37
2018-08-30T17:45:37.487Z,5.20
2018-08-30T17:48:06.110Z,9.27
2018-08-30T17:50:35.003Z,6.20
2018-08-30T17:53:03.429Z,5.03
2018-08-30T17:55:32.122Z,7.00
2018-08-30T17:58:01.125Z,7.77
2018-08-30T18:00:29.834Z,7.40
2018-08-30T18:02:58.514Z,8.20
2018-08-30T18:05:27.143Z,9.03
2018-08-30T18:07:55.859Z,9.17
2018-08-30T18:10:24.567Z,7.27
2018-08-30T18:12:53.141Z,8.63
2018-08-30T18:15:21.810Z,6.83
2018-08-30T18:17:50.489Z,7.93
2018-08-30T18:20:19.086Z,6.73
2018-08-30T18:22:47.960Z,7.57
2018-08-30T18:25:16.673Z,7.13
2018-08-30T18:27:45.389Z,9.60
2018-08-30T18:30:14.034Z,6.60
2018-08-30T18:32:42.799Z,6.33
2018-08-30T18:35:11.619Z,12.20
2018-08-30T18:37:40.432Z,10.50
2018-08-30T18:40:09.625Z,9.10
2018-08-30T18:42:38.554Z,6.33
2018-08-30T18:45:07.201Z,10.53
2018-08-30T18:47:36.262Z,7.07
2018-08-30T18:50:04.901Z,8.23
2018-08-30T18:52:33.752Z,6.03
2018-08-30T18:55:02.425Z,11.10
2018-08-30T18:57:31.190Z,6.50
2018-08-30T18:59:59.835Z,13.40
2018-08-30T19:02:28.473Z,7.17
2018-08-30T19:04:57.146Z,5.33
2018-08-30T19:07:25.861Z,7.13
2018-08-30T19:09:54.513Z,10.80
2018-08-30T19:12:23.275Z,9.10
2018-08-30T19:14:51.910Z,10.23
2018-08-30T19:17:26.145Z,10.30
2018-08-30T19:19:54.902Z,11.47
2018-08-30T19:22:23.623Z,7.73
2018-08-30T19:24:57.755Z,7.50
2018-08-30T19:27:26.542Z,6.97
2018-08-30T19:30:00.569Z,7.73
2018-08-30T19:32:29.251Z,11.20
2018-08-30T19:35:02.155Z,8.13
2018-08-30T19:37:30.802Z,6.23
2018-08-30T19:39:59.491Z,6.40
2018-08-30T19:42:28.282Z,6.63
2018-08-30T19:44:56.906Z,6.10
2018-08-30T19:47:25.574Z,8.47
2018-08-30T19:49:54.243Z,6.67
2018-08-30T19:52:22.922Z,21.43
2018-08-30T19:54:51.624Z,12.33
2018-08-30T19:57:20.274Z,7.93
2018-08-30T19:59:48.934Z,6.53
2018-08-30T20:02:17.614Z,9.37
2018-08-30T20:04:46.267Z,6.80
2018-08-30T20:07:14.906Z,7.57
2018-08-30T20:09:43.777Z,10.67
2018-08-30T20:12:12.430Z,10.10
2018-08-30T20:14:41.106Z,9.20
2018-08-30T20:17:10.014Z,8.83
2018-08-30T20:19:38.677Z,10.33
2018-08-30T20:22:09.202Z,7.57
2018-08-30T20:24:37.754Z,7.20
2018-08-30T20:27:06.438Z,6.80
2018-08-30T20:29:35.373Z,6.30
2018-08-30T20:32:04.074Z,9.13
2018-08-30T20:34:32.773Z,6.80
2018-08-30T20:37:01.677Z,6.50
2018-08-30T20:39:30.317Z,7.60
2018-08-30T20:41:59.013Z,6.10
2018-08-30T20:44:27.663Z,9.30
2018-08-30T20:46:56.319Z,10.90
2018-08-30T20:49:25.037Z,12.53
2018-08-30T20:51:53.689Z,8.70
2018-08-30T20:54:22.813Z,10.50
2018-08-30T20:56:51.413Z,6.70
2018-08-30T20:59:20.066Z,7.60
2018-08-30T21:01:48.737Z,5.93
2018-08-30T21:04:17.393Z,5.97
2018-08-30T21:06:46.065Z,9.77
2018-08-30T21:09:14.778Z,11.17
2018-08-30T21:11:43.498Z,8.30
2018-08-30T21:14:12.153Z,5.97
2018-08-30T21:16:40.850Z,9.27
2018-08-30T21:19:09.546Z,9.60
2018-08-30T21:21:38.346Z,8.57
2018-08-30T21:24:07.068Z,9.90
2018-08-30T21:26:35.781Z,9.87
2018-08-30T21:29:04.559Z,8.80
2018-08-30T21:31:33.287Z,6.50
2018-08-30T21:34:02.103Z,7.67
2018-08-30T21:36:30.785Z,11.73
2018-08-30T21:38:59.503Z,9.93
2018-08-30T21:41:28.177Z,8.30
2018-08-30T21:43:56.866Z,5.97
2018-08-30T21:46:25.577Z,11.43
2018-08-30T21:48:54.384Z,13.17
2018-08-30T21:51:23.083Z,8.13
2018-08-30T21:53:51.729Z,5.77
2018-08-30T21:56:20.478Z,10.20
2018-08-30T21:58:49.178Z,8.20
2018-08-30T22:01:17.873Z,9.97
2018-08-30T22:03:46.514Z,8.00
2018-08-30T22:06:15.166Z,6.33
2018-08-30T22:08:43.809Z,6.27
2018-08-30T22:11:12.499Z,8.00
2018-08-30T22:13:41.168Z,7.23
2018-08-30T22:16:09.809Z,9.37
2018-08-30T22:18:38.461Z,6.73
2018-08-30T22:21:07.109Z,10.20
2018-08-30T22:23:35.781Z,6.80
2018-08-30T22:26:04.518Z,5.77
2018-08-30T22:28:33.181Z,7.67
2018-08-30T22:31:01.821Z,8.10
2018-08-30T22:33:30.469Z,6.27
2018-08-30T22:35:59.117Z,9.30
2018-08-30T22:38:27.865Z,8.20
2018-08-30T22:40:56.510Z,11.30
2018-08-30T22:43:25.181Z,6.67
2018-08-30T22:45:53.813Z,8.50
2018-08-30T22:48:22.462Z,10.43
2018-08-30T22:50:51.178Z,5.40
2018-08-30T22:53:19.822Z,8.60
2018-08-30T22:55:48.558Z,7.83
2018-08-30T22:58:19.495Z,5.97
2018-08-30T23:00:48.129Z,8.53
2018-08-30T23:03:16.798Z,7.10
2018-08-30T23:05:45.466Z,9.67
2018-08-30T23:08:14.134Z,10.00
2018-08-30T23:10:42.794Z,10.93
2018-08-30T23:13:11.451Z,8.80
2018-08-30T23:15:40.125Z,9.37
2018-08-30T23:18:11.749Z,6.73
2018-08-30T23:20:44.560Z,6.30
2018-08-30T23:23:13.281Z,10.90
2018-08-30T23:25:41.933Z,13.43
2018-08-30T23:28:10.590Z,8.23
2018-08-30T23:30:39.349Z,10.00
2018-08-30T23:33:07.899Z,10.27
2018-08-30T23:35:38.660Z,9.17
2018-08-30T23:38:07.586Z,8.00
2018-08-30T23:40:38.433Z,7.00
2018-08-30T23:43:07.053Z,9.03
2018-08-30T23:45:40.264Z,7.70
2018-08-30T23:48:09.085Z,9.50
2018-08-30T23:50:38.568Z,8.27
2018-08-30T23:53:07.207Z,6.23
2018-08-30T23:55:35.854Z,9.20
2018-08-30T23:58:15.993Z,7.40
